Weather observations for the past three days for
Dallas, Redbird Airport
Imperial (Metric)
Date Time (cdt) Wind (mph) Vis. (mi.) Weather Sky Cond. Temperature (ºF) Relative Humidity Wind Chill (°F) Heat Index (°F) Pressure Precipitation (in)
Air Dwpt 6 hour altimeter (in) sea level (mb) 1 hr 3 hr 6 hr
Max. Min.
02 13:53 N 8 G 16 10.00 Fair CLR 73.9 41 31% 30.15 1020.5
02 12:53 NW 5 10.00 Fair CLR 72 37.9 73 53.1 29% 30.17 1021.3
02 11:53 NW 6 10.00 Fair CLR 70 44.1 39% 30.19 1021.8
02 10:53 Calm 10.00 Fair CLR 66.9 44.1 44% 30.18 1021.6
02 09:53 NW 8 10.00 Fair CLR 63 48.9 60% 30.18 1021.5
02 08:53 NW 9 10.00 Fair CLR 59 51.1 75% 30.16 1021.0
02 07:53 NW 10 10.00 Fair CLR 55 48.9 80% 30.15 1020.7
02 06:53 NW 8 10.00 Fair CLR 52 48 54 48.9 86% 30.12 1019.7
02 05:53 NW 7 10.00 Fair CLR 51.1 46.9 86% 30.09 1018.8
02 04:53 Calm 10.00 Fair CLR 50 46 86% 30.08 1018.5
02 03:53 W 8 10.00 Fair CLR 53.1 48 83% 30.08 1018.3
02 02:53 W 6 10.00 Fair CLR 52 46.9 83% 30.08 1018.4
02 01:53 W 3 10.00 Fair CLR 51.1 46.9 86% 30.08 1018.5
02 00:53 W 5 10.00 Fair CLR 54 48 60.1 52 80% 30.09 1018.7
01 23:53 Calm 10.00 Fair CLR 53.1 50 89% 30.09 1018.6
01 22:53 Calm 10.00 A Few Clouds FEW060 55 50 83% 30.08 1018.3
01 21:53 NE 3 10.00 Mostly Cloudy FEW090 BKN120 57 50 78% 30.07 1018.0
01 20:53 Calm 10.00 Overcast OVC090 57 51.1 81% 30.05 1017.3
01 19:53 E 3 10.00 Mostly Cloudy FEW060 BKN110 59 48 67% 30.02 1016.1
01 18:53 SE 6 10.00 Overcast FEW080 OVC100 60.1 48 63 60.1 65% 30.01 1015.8
01 17:53 NE 6 10.00 Overcast OVC100 61 48.9 65% 29.98 1015.0
01 16:53 NE 8 10.00 Light Rain FEW075 OVC100 62.1 46 56% 29.98 1014.8
01 15:53 NE 12 10.00 Overcast BKN090 OVC100 63 45 52% 29.98 1014.7
01 14:53 E 7 10.00 Overcast OVC060 61 45 56% 30.01 1015.8
01 13:53 NE 10 10.00 Overcast OVC060 61 44.1 54% 29.99 1015.1
01 12:53 E 13 G 23 10.00 Overcast OVC050 61 43 61 57 52% 30.01 1015.6
01 11:53 NE 15 G 25 10.00 Overcast OVC055 60.1 45 58% 30.03 1016.6
01 10:53 E 10 10.00 Partly Cloudy SCT090 57.9 46 65% 30.02 1016.4
01 09:53 E 9 10.00 Overcast BKN060 BKN070 OVC090 57 51.1 81% 30.01 1016.0
01 08:53 NE 12 10.00 Overcast OVC100 57 51.1 81% 30.02 1016.1
01 07:53 NE 5 10.00 Overcast OVC055 57.9 52 81% 30.03 1016.5
01 06:53 NE 7 10.00 Mostly Cloudy SCT050 BKN110 57 52 60.1 57 83% 29.97 1014.7
01 05:53 NE 6 10.00 Overcast OVC046 57.9 52 81% 29.98 1014.8
01 04:53 E 5 10.00 Overcast OVC042 57.9 52 81% 29.98 1015.0
01 03:53 E 9 10.00 Overcast OVC034 57.9 51.1 78% 29.97 1014.4
01 02:53 NE 9 10.00 Overcast OVC030 59 51.1 75% 29.97 1014.6
01 01:53 NE 9 10.00 Overcast OVC030 59 52 78% 29.99 1015.3
01 00:53 E 10 10.00 Overcast OVC028 60.1 52 62.1 60.1 75% 30.01 1015.6
30 23:53 NE 7 10.00 Overcast OVC027 60.1 53.1 78% 30.01 1016.0
30 22:53 NE 10 10.00 Overcast OVC025 61 53.1 75% 30 1015.3
30 21:53 NE 14 10.00 Overcast OVC023 61 53.1 75% 29.96 1013.9
30 20:53 E 8 10.00 Overcast OVC024 61 54 78% 29.96 1014.0
30 19:53 NE 7 10.00 Overcast OVC026 61 54 78% 29.94 1013.5
30 18:53 NE 8 10.00 Overcast OVC023 62.1 54 62.1 60.1 75% 29.92 1012.9
30 17:53 NE 10 10.00 Overcast OVC022 62.1 55 78% 29.91 1012.3
30 16:53 NE 9 10.00 Overcast OVC023 61 55 81% 29.93 1013.0
30 15:53 NE 8 10.00 Light Rain OVC018 60.1 55 84% 29.92 1012.7
30 14:53 NE 8 10.00 Overcast OVC014 61 57 87% 29.93 1013.0
30 13:53 E 13 10.00 Overcast BKN008 OVC015 61 60.1 97% 29.88 1011.4
30 12:53 E 18 G 29 7.00 Overcast BKN005 OVC100 61 60.1 61 59 97% 29.87 1011.2 0.03 0.07
30 11:53 NE 7 6.00 Light Rain Fog/Mist BKN008 OVC015 60.1 59 96% 30 1015.5 0.04
30 10:53 N 5 2.50 Thunderstorm in Vicinity Light Rain Fog/Mist OVC007 60.1 59 96% 29.99 1015.2
30 09:53 NE 7 4.00 Fog/Mist OVC013 61 57.9 90% 29.96 1014.2
30 08:53 NE 14 G 22 10.00 Overcast BKN014 OVC024 61 57 87% 29.94 1013.3
30 07:53 NE 15 10.00 Overcast FEW012 OVC024 60.1 57 90% 29.92 1012.7
30 06:53 NE 12 10.00 Partly Cloudy FEW012 SCT027 59 55.9 63 59 90% 29.93 1013.0
30 05:53 NE 12 10.00 A Few Clouds FEW015 60.1 57 90% 29.92 1012.8
30 04:53 NE 8 10.00 Overcast SCT014 BKN021 OVC050 62.1 57.9 86% 29.93 1013.2
30 03:53 NE 9 10.00 Overcast SCT018 SCT037 OVC055 62.1 57.9 86% 29.93 1013.1
30 02:53 NE 7 10.00 Overcast BKN019 OVC055 62.1 57.9 86% 29.93 1012.9
30 01:53 NE 8 10.00 Overcast FEW017 OVC031 63 59 87% 29.95 1013.7
30 00:53 NE 8 10.00 Overcast OVC020 62.1 57.9 63 61 86% 29.96 1014.1 0.01
29 23:53 NE 7 10.00 Overcast OVC028 62.1 57 84% 29.97 1014.5
29 22:53 N 5 10.00 Light Rain OVC028 61 57 87% 29.97 1014.5 0.01
29 21:53 N 8 10.00 Overcast OVC025 62.1 55.9 80% 29.96 1014.1
29 20:53 N 6 10.00 Overcast OVC030 62.1 57 84% 29.92 1012.8
29 19:53 N 9 10.00 Overcast OVC022 62.1 55.9 80% 29.92 1012.7
29 18:53 NE 10 10.00 Overcast OVC020 63 57.9 64.9 57.9 84% 29.89 1011.6 0.98
29 17:53 N 9 10.00 Light Rain OVC021 63 59 87% 29.9 1012.1 0.01
29 16:53 N 6 10.00 Overcast OVC019 64 57.9 81% 29.9 1012.0
29 15:53 N 10 10.00 Overcast OVC016 64 59 84% 29.9 1011.9 0.97
29 14:53 N 12 10.00 Mostly Cloudy SCT011 BKN018 BKN029 63 60.1 90% 29.94 1013.3 0.23
Date Time (cdt) Wind (mph) Vis. (mi.) Weather Sky Cond. Air Dwpt Max. Min. Relative Humidity Wind Chill (°F) Heat Index (°F) altimeter (in) sea level (mb) 1 hr 3 hr 6 hr
6 hour
Temperature (ºF) Pressure Precipitation (in)